createdAt,value
2019-05-25T00:02:06.077Z,2.30
2019-05-25T00:04:34.088Z,2.72
2019-05-25T00:07:02.128Z,2.20
2019-05-25T00:09:30.246Z,2.40
2019-05-25T00:11:58.254Z,2.30
2019-05-25T00:14:26.425Z,2.42
2019-05-25T00:16:54.451Z,2.00
2019-05-25T00:19:22.485Z,2.62
2019-05-25T00:21:50.529Z,2.50
2019-05-25T00:24:18.533Z,2.83
2019-05-25T00:26:46.538Z,2.35
2019-05-25T00:29:14.609Z,2.33
2019-05-25T00:31:42.597Z,2.47
2019-05-25T00:34:10.820Z,2.47
2019-05-25T00:36:38.901Z,2.27
2019-05-25T00:39:06.914Z,2.60
2019-05-25T00:41:34.920Z,2.10
2019-05-25T00:44:03.013Z,2.40
2019-05-25T00:46:31.033Z,2.10
2019-05-25T00:48:59.052Z,2.00
2019-05-25T00:51:27.098Z,2.22
2019-05-25T00:53:55.270Z,1.82
2019-05-25T00:56:23.267Z,2.05
2019-05-25T00:58:51.282Z,1.80
2019-05-25T01:01:19.412Z,1.92
2019-05-25T01:03:47.409Z,1.62
2019-05-25T01:06:15.410Z,1.70
2019-05-25T01:08:43.512Z,1.80
2019-05-25T01:11:11.540Z,1.95
2019-05-25T01:13:40.252Z,1.92
2019-05-25T01:16:08.293Z,2.10
2019-05-25T01:18:36.429Z,1.82
2019-05-25T01:21:04.732Z,1.70
2019-05-25T01:23:32.772Z,1.90
2019-05-25T01:26:00.828Z,2.10
2019-05-25T01:28:28.839Z,1.98
2019-05-25T01:30:56.862Z,1.77
2019-05-25T01:33:24.899Z,1.80
2019-05-25T01:35:52.912Z,1.80
2019-05-25T01:38:20.918Z,2.25
2019-05-25T01:40:48.946Z,2.05
2019-05-25T01:43:16.994Z,1.85
2019-05-25T01:45:45.030Z,1.90
2019-05-25T01:48:13.052Z,1.80
2019-05-25T01:50:41.121Z,1.90
2019-05-25T01:53:11.631Z,2.08
2019-05-25T01:55:39.307Z,2.10
2019-05-25T01:58:07.330Z,1.90
2019-05-25T02:00:35.308Z,1.95
2019-05-25T02:03:03.427Z,1.85
2019-05-25T02:05:31.406Z,1.92
2019-05-25T02:07:59.417Z,2.05
2019-05-25T02:10:27.466Z,1.70
2019-05-25T02:12:55.457Z,2.05
2019-05-25T02:15:23.512Z,2.17
2019-05-25T02:17:51.535Z,2.08
2019-05-25T02:20:19.569Z,1.87
2019-05-25T02:22:47.575Z,2.10
2019-05-25T02:25:18.140Z,2.08
2019-05-25T02:27:45.596Z,2.00
2019-05-25T02:30:13.613Z,1.90
2019-05-25T02:32:41.623Z,2.00
2019-05-25T02:35:09.616Z,2.17
2019-05-25T02:37:37.648Z,2.22
2019-05-25T02:40:05.682Z,1.87
2019-05-25T02:42:33.707Z,2.00
2019-05-25T02:45:01.740Z,2.10
2019-05-25T02:47:29.827Z,2.40
2019-05-25T02:49:57.932Z,2.10
2019-05-25T02:52:26.012Z,2.05
2019-05-25T02:54:54.217Z,2.22
2019-05-25T02:57:22.265Z,2.10
2019-05-25T02:59:50.457Z,2.30
2019-05-25T03:02:18.473Z,2.20
2019-05-25T03:04:46.670Z,2.10
2019-05-25T03:07:14.752Z,2.20
2019-05-25T03:09:42.946Z,2.37
2019-05-25T03:12:11.021Z,2.50
2019-05-25T03:14:39.133Z,2.40
2019-05-25T03:17:07.126Z,2.20
2019-05-25T03:19:35.325Z,2.40
2019-05-25T03:22:03.310Z,2.27
2019-05-25T03:24:31.360Z,2.45
2019-05-25T03:26:59.385Z,2.47
2019-05-25T03:29:27.480Z,2.50
2019-05-25T03:31:55.534Z,2.80
2019-05-25T03:34:23.630Z,2.70
2019-05-25T03:36:51.657Z,2.72
2019-05-25T03:39:19.739Z,2.90
2019-05-25T03:41:48.020Z,2.85
2019-05-25T03:44:16.006Z,2.90
2019-05-25T03:46:44.047Z,2.90
2019-05-25T03:49:12.110Z,3.15
2019-05-25T03:51:40.117Z,3.35
2019-05-25T03:54:08.159Z,3.62
2019-05-25T03:56:36.178Z,3.33
2019-05-25T03:59:04.184Z,3.25
2019-05-25T04:01:32.225Z,3.50
2019-05-25T04:04:00.502Z,3.25
2019-05-25T04:06:28.521Z,3.05
2019-05-25T04:08:56.574Z,3.40
2019-05-25T04:11:24.604Z,3.20
2019-05-25T04:13:52.671Z,3.55
2019-05-25T04:16:20.663Z,3.30
2019-05-25T04:18:48.905Z,3.15
2019-05-25T04:21:16.973Z,3.37
2019-05-25T04:23:44.985Z,3.47
2019-05-25T04:26:22.009Z,3.20
2019-05-25T04:28:42.732Z,2.80
2019-05-25T04:31:10.756Z,2.80
2019-05-25T04:33:38.820Z,2.85
2019-05-25T04:36:06.847Z,2.65
2019-05-25T04:38:34.877Z,2.85
2019-05-25T04:41:02.936Z,2.30
2019-05-25T04:43:30.923Z,2.50
2019-05-25T04:45:59.051Z,2.52
2019-05-25T04:48:27.092Z,2.52
2019-05-25T04:50:55.164Z,2.70
2019-05-25T04:53:23.161Z,2.83
2019-05-25T04:55:51.184Z,2.85
2019-05-25T04:58:19.279Z,2.70
2019-05-25T05:00:47.518Z,2.80
2019-05-25T05:03:15.581Z,2.70
2019-05-25T05:05:43.720Z,2.98
2019-05-25T05:08:11.724Z,2.72
2019-05-25T05:10:40.094Z,2.60
2019-05-25T05:13:08.294Z,3.00
2019-05-25T05:15:36.309Z,2.52
2019-05-25T05:18:04.333Z,2.60
2019-05-25T05:20:34.276Z,2.80
2019-05-25T05:23:02.306Z,2.40
2019-05-25T05:25:30.380Z,2.60
2019-05-25T05:27:58.482Z,2.60
2019-05-25T05:30:26.473Z,2.83
2019-05-25T05:32:54.528Z,2.42
2019-05-25T05:35:22.549Z,2.60
2019-05-25T05:37:50.629Z,2.60
2019-05-25T05:40:18.668Z,2.75
2019-05-25T05:42:46.698Z,2.98
2019-05-25T05:45:14.810Z,2.60
2019-05-25T05:47:43.119Z,3.10
2019-05-25T05:50:11.096Z,2.80
2019-05-25T05:52:39.353Z,2.52
2019-05-25T05:55:07.357Z,3.15
2019-05-25T05:57:35.401Z,2.60
2019-05-25T06:00:03.441Z,3.00
2019-05-25T06:02:31.471Z,2.72
2019-05-25T06:04:59.548Z,2.70
2019-05-25T06:07:27.667Z,2.80
2019-05-25T06:09:55.779Z,2.87
2019-05-25T06:12:23.865Z,2.85
2019-05-25T06:14:51.893Z,2.60
2019-05-25T06:17:19.882Z,2.75
2019-05-25T06:19:47.919Z,2.90
2019-05-25T06:22:15.911Z,2.77
2019-05-25T06:24:43.966Z,2.55
2019-05-25T06:27:26.365Z,2.50
2019-05-25T06:29:42.023Z,2.80
2019-05-25T06:32:10.033Z,2.67
2019-05-25T06:34:38.174Z,2.87
2019-05-25T06:37:06.238Z,2.60
2019-05-25T06:39:34.394Z,2.58
2019-05-25T06:42:02.516Z,2.45
2019-05-25T06:44:30.643Z,2.80
2019-05-25T06:46:58.680Z,2.80
2019-05-25T06:49:26.736Z,2.92
2019-05-25T06:51:54.800Z,3.20
2019-05-25T06:54:22.894Z,2.37
2019-05-25T06:56:50.983Z,2.85
2019-05-25T06:59:19.037Z,3.00
2019-05-25T07:01:47.440Z,2.70
2019-05-25T07:04:16.107Z,2.80
2019-05-25T07:06:44.171Z,2.98
2019-05-25T07:09:12.241Z,2.58
2019-05-25T07:11:40.310Z,2.80
2019-05-25T07:14:08.352Z,2.77
2019-05-25T07:16:36.421Z,3.25
2019-05-25T07:19:05.460Z,2.80
2019-05-25T07:21:37.760Z,2.95
2019-05-25T07:24:05.842Z,2.92
2019-05-25T07:26:35.110Z,3.10
2019-05-25T07:29:03.265Z,3.05
2019-05-25T07:31:31.389Z,3.40
2019-05-25T07:33:59.543Z,3.47
2019-05-25T07:36:28.557Z,2.77
2019-05-25T07:38:58.172Z,2.50
2019-05-25T07:41:26.398Z,2.90
2019-05-25T07:43:54.513Z,2.80
2019-05-25T07:46:24.171Z,2.70
2019-05-25T07:48:52.222Z,2.35
2019-05-25T07:51:20.366Z,2.65
2019-05-25T07:53:58.960Z,2.45
2019-05-25T07:56:27.599Z,3.30
2019-05-25T07:58:55.650Z,2.70
2019-05-25T08:01:23.753Z,3.10
2019-05-25T08:03:51.876Z,2.92
2019-05-25T08:06:20.029Z,2.80
2019-05-25T08:08:50.909Z,2.47
2019-05-25T08:11:18.978Z,2.60
2019-05-25T08:13:47.057Z,2.83
2019-05-25T08:16:15.153Z,2.72
2019-05-25T08:18:52.440Z,2.92
2019-05-25T08:21:20.487Z,2.72
2019-05-25T08:23:48.523Z,2.83
2019-05-25T08:26:16.631Z,2.70
2019-05-25T08:28:45.403Z,2.95
2019-05-25T08:31:13.479Z,2.75
2019-05-25T08:33:41.566Z,3.45
2019-05-25T08:36:09.762Z,2.87
2019-05-25T08:38:38.069Z,3.80
2019-05-25T08:41:06.170Z,3.60
2019-05-25T08:43:53.083Z,3.60
2019-05-25T08:46:21.144Z,3.62
2019-05-25T08:48:49.237Z,3.27
2019-05-25T08:51:17.370Z,3.20
2019-05-25T08:53:46.759Z,2.90
2019-05-25T08:56:14.927Z,2.77
2019-05-25T08:58:48.531Z,2.80
2019-05-25T09:01:12.828Z,2.65
2019-05-25T09:03:41.097Z,2.90
2019-05-25T09:06:09.276Z,2.65
2019-05-25T09:08:37.814Z,2.62
2019-05-25T09:11:06.260Z,2.70
2019-05-25T09:13:34.359Z,2.60
2019-05-25T09:16:02.380Z,2.40
2019-05-25T09:18:30.474Z,2.52
2019-05-25T09:20:59.009Z,2.75
2019-05-25T09:23:27.103Z,2.30
2019-05-25T09:25:55.151Z,2.40
2019-05-25T09:28:23.234Z,2.77
2019-05-25T09:30:51.279Z,3.10
2019-05-25T09:33:19.399Z,2.90
2019-05-25T09:35:47.500Z,2.72
2019-05-25T09:38:15.695Z,3.30
2019-05-25T09:40:43.889Z,2.90
2019-05-25T09:43:11.926Z,2.60
2019-05-25T09:45:40.002Z,2.70
2019-05-25T09:48:10.061Z,2.60
2019-05-25T09:50:38.083Z,3.00
2019-05-25T09:53:08.417Z,2.83
2019-05-25T09:55:36.541Z,3.00
2019-05-25T09:58:04.695Z,3.20
2019-05-25T10:00:32.824Z,3.27
2019-05-25T10:03:00.944Z,3.17
2019-05-25T10:05:28.991Z,3.80
2019-05-25T10:07:57.064Z,3.33
2019-05-25T10:10:25.322Z,3.60
2019-05-25T10:12:53.357Z,3.33
2019-05-25T10:15:21.413Z,3.17
2019-05-25T10:17:49.540Z,3.90
2019-05-25T10:20:17.547Z,2.85
2019-05-25T10:22:45.715Z,3.27
2019-05-25T10:25:13.833Z,3.37
2019-05-25T10:27:41.861Z,3.10
2019-05-25T10:30:10.386Z,2.50
2019-05-25T10:32:38.448Z,2.45
2019-05-25T10:35:06.577Z,2.72
2019-05-25T10:37:34.617Z,3.00
2019-05-25T10:40:02.679Z,2.80
2019-05-25T10:42:31.013Z,3.02
2019-05-25T10:44:59.146Z,2.87
2019-05-25T10:47:27.168Z,2.92
2019-05-25T10:49:55.211Z,2.60
2019-05-25T10:52:23.305Z,2.58
2019-05-25T10:54:51.380Z,2.37
2019-05-25T10:57:19.483Z,2.80
2019-05-25T10:59:52.863Z,2.30
2019-05-25T11:02:17.404Z,2.42
2019-05-25T11:04:46.827Z,2.62
2019-05-25T11:07:15.149Z,2.60
2019-05-25T11:09:43.220Z,2.30
2019-05-25T11:12:12.469Z,2.42
2019-05-25T11:14:41.374Z,2.60
2019-05-25T11:17:09.511Z,2.30
2019-05-25T11:19:37.748Z,2.65
2019-05-25T11:22:05.870Z,2.52
2019-05-25T11:24:33.943Z,2.27
2019-05-25T11:27:01.976Z,2.37
2019-05-25T11:29:30.113Z,2.40
2019-05-25T11:32:03.405Z,2.52
2019-05-25T11:34:28.398Z,2.30
2019-05-25T11:36:56.446Z,2.62
2019-05-25T11:39:24.479Z,2.58
2019-05-25T22:37:45.540Z,3.00
2019-05-25T22:40:13.549Z,3.55
2019-05-25T22:42:41.643Z,3.55
2019-05-25T22:45:09.675Z,3.70
2019-05-25T22:47:37.709Z,5.12
2019-05-25T22:50:05.910Z,6.22
2019-05-25T22:52:34.058Z,7.78
2019-05-25T22:55:02.276Z,7.10
2019-05-25T22:57:30.399Z,7.58
2019-05-25T22:59:58.511Z,6.40
2019-05-25T23:02:26.545Z,6.60
2019-05-25T23:04:54.679Z,7.33
2019-05-25T23:07:23.574Z,6.47
2019-05-25T23:09:51.603Z,6.55
2019-05-25T23:12:19.782Z,7.40
2019-05-25T23:14:47.810Z,7.50
2019-05-25T23:17:15.929Z,7.37
2019-05-25T23:19:43.961Z,7.12
2019-05-25T23:22:12.099Z,7.20
2019-05-25T23:24:40.355Z,8.08
2019-05-25T23:27:08.452Z,7.62
2019-05-25T23:29:36.561Z,7.37
2019-05-25T23:32:04.609Z,7.53
2019-05-25T23:34:32.719Z,8.15
2019-05-25T23:37:14.409Z,8.28
2019-05-25T23:39:30.535Z,7.70
2019-05-25T23:41:58.569Z,8.48
2019-05-25T23:44:26.682Z,8.48
2019-05-25T23:46:55.329Z,8.05
2019-05-25T23:49:23.613Z,8.83
2019-05-25T23:51:51.806Z,8.75
2019-05-25T23:54:19.989Z,9.20
2019-05-25T23:56:48.870Z,8.88
2019-05-25T23:59:16.962Z,9.53
